Time;durP1;ratioP1;P1;durP2;ratioP2;P2;SDS_P1;SDS_P2;PMS_P1;PMS_P2;Temp;Humidity;BMP_temperature;BMP_pressure;BME280_temperature;BME280_humidity;BME280_pressure;Samples;Min_cycle;Max_cycle;Signal;HPM_P1;HPM_P2
2022/07/11 00:02:10;;;;;;;2.58;1.67;;;15.50;99.90;;;;;;5075995;28;20041;-76
2022/07/11 00:04:36;;;;;;;3.83;1.42;;;15.40;99.90;;;;;;5076494;28;20056;-77
2022/07/11 00:07:02;;;;;;;2.53;1.50;;;15.40;99.90;;;;;;5076255;28;20470;-77
2022/07/11 00:09:29;;;;;;;2.75;1.60;;;15.30;99.90;;;;;;5076510;28;20056;-76
2022/07/11 00:11:56;;;;;;;3.05;1.60;;;15.20;99.90;;;;;;5075501;28;20045;-76
2022/07/11 00:14:22;;;;;;;2.42;1.50;;;15.20;99.90;;;;;;5074684;28;20044;-76
2022/07/11 00:16:52;;;;;;;3.08;2.08;;;15.20;99.90;;;;;;5075663;28;20041;-76
2022/07/11 00:19:18;;;;;;;3.83;1.58;;;15.20;99.90;;;;;;5076707;28;20051;-76
2022/07/11 00:21:44;;;;;;;4.50;1.50;;;15.20;99.90;;;;;;5074588;28;20062;-76
2022/07/11 00:24:10;;;;;;;2.30;1.52;;;15.20;99.90;;;;;;5075081;28;20044;-76
2022/07/11 00:26:36;;;;;;;3.15;1.48;;;15.20;99.90;;;;;;5075994;28;20477;-76
2022/07/11 00:29:02;;;;;;;3.78;1.58;;;15.20;99.90;;;;;;5075993;28;20045;-76
2022/07/11 00:31:28;;;;;;;3.13;1.60;;;15.20;99.90;;;;;;5075240;28;20040;-76
2022/07/11 00:33:55;;;;;;;3.03;1.60;;;15.20;99.90;;;;;;5074362;28;20106;-76
2022/07/11 00:36:21;;;;;;;4.95;1.77;;;15.20;99.90;;;;;;5075058;28;20048;-76
2022/07/11 00:38:46;;;;;;;4.53;1.85;;;15.20;99.90;;;;;;5057605;28;20121;-76
2022/07/11 00:41:12;;;;;;;3.63;1.77;;;15.20;99.90;;;;;;5073950;28;20047;-77
2022/07/11 00:43:39;;;;;;;2.63;1.38;;;15.20;99.90;;;;;;5075535;28;20049;-76
2022/07/11 00:46:07;;;;;;;5.38;1.73;;;15.20;99.90;;;;;;5073821;28;20057;-76
2022/07/11 00:48:33;;;;;;;3.65;1.80;;;15.20;99.90;;;;;;5075052;28;20397;-77
2022/07/11 00:51:01;;;;;;;16.73;1.90;;;15.20;99.90;;;;;;5057257;28;20080;-77
2022/07/11 00:53:28;;;;;;;2.83;1.42;;;15.20;99.90;;;;;;5073655;28;20373;-77
2022/07/11 00:55:54;;;;;;;3.10;1.40;;;15.10;99.90;;;;;;5073707;28;20048;-76
2022/07/11 00:58:20;;;;;;;2.28;1.40;;;15.10;99.90;;;;;;5075877;28;20056;-77
2022/07/11 01:00:45;;;;;;;3.55;1.58;;;15.10;99.90;;;;;;5073757;28;20055;-76
2022/07/11 01:03:12;;;;;;;4.38;1.25;;;15.10;99.90;;;;;;5056773;28;20116;-77
2022/07/11 01:05:37;;;;;;;2.90;1.40;;;15.10;99.90;;;;;;5073989;28;20041;-76
2022/07/11 01:08:04;;;;;;;2.70;1.30;;;15.10;99.90;;;;;;5073888;28;20135;-76
2022/07/11 01:10:30;;;;;;;3.03;1.17;;;15.10;99.90;;;;;;5057598;28;20044;-77
2022/07/11 01:12:56;;;;;;;3.55;1.30;;;15.10;99.90;;;;;;5074991;28;20435;-76
2022/07/11 01:15:22;;;;;;;2.72;1.00;;;15.20;99.90;;;;;;5073716;28;20059;-77
2022/07/11 01:17:48;;;;;;;2.72;1.42;;;15.20;99.90;;;;;;5073135;28;20459;-77
2022/07/11 01:20:13;;;;;;;2.10;1.20;;;15.20;99.90;;;;;;5074336;28;20040;-77
2022/07/11 01:22:52;;;;;;;2.75;1.55;;;15.20;99.90;;;;;;5074293;28;20085;-76
2022/07/11 01:25:30;;;;;;;2.92;1.20;;;15.20;99.90;;;;;;5074314;28;20117;-77
2022/07/11 01:28:02;;;;;;;2.80;1.55;;;15.20;99.90;;;;;;5059081;28;20094;-77
2022/07/11 01:30:29;;;;;;;2.58;1.20;;;15.20;99.90;;;;;;5073045;28;20068;-77
2022/07/11 01:32:55;;;;;;;3.28;1.50;;;15.20;99.90;;;;;;5073163;28;20036;-76
2022/07/11 01:35:22;;;;;;;4.60;1.42;;;15.20;99.90;;;;;;5074004;28;20045;-76
2022/07/11 01:37:48;;;;;;;2.42;1.25;;;15.20;99.90;;;;;;5057318;28;20091;-77
2022/07/11 01:40:13;;;;;;;1.83;1.10;;;15.20;99.90;;;;;;5073985;28;20084;-77
2022/07/11 01:42:40;;;;;;;2.38;1.25;;;15.20;99.90;;;;;;5073979;28;20083;-76
2022/07/11 01:45:06;;;;;;;3.85;1.67;;;15.20;99.90;;;;;;5090040;28;20052;-76
2022/07/11 01:47:31;;;;;;;2.83;1.35;;;15.20;99.90;;;;;;5074307;28;20080;-76
2022/07/11 01:49:57;;;;;;;3.42;1.25;;;15.20;99.90;;;;;;5072575;28;20106;-76
2022/07/11 01:52:23;;;;;;;3.88;1.20;;;15.20;99.90;;;;;;5073749;28;20044;-76
2022/07/11 01:54:49;;;;;;;2.03;1.00;;;15.20;99.90;;;;;;5072732;28;20045;-76
2022/07/11 01:57:15;;;;;;;3.63;1.15;;;15.20;99.90;;;;;;5089937;28;20094;-76
2022/07/11 01:59:41;;;;;;;2.22;1.10;;;15.20;99.90;;;;;;5073620;28;20048;-76
2022/07/11 02:02:07;;;;;;;1.77;1.00;;;15.20;99.90;;;;;;5073660;28;20363;-76
2022/07/11 02:04:33;;;;;;;2.33;1.10;;;15.20;99.90;;;;;;5073606;28;20045;-76
2022/07/11 02:06:58;;;;;;;2.35;1.10;;;15.10;99.90;;;;;;5073601;28;20199;-76
2022/07/11 02:09:24;;;;;;;2.60;1.00;;;15.20;99.90;;;;;;5072351;28;20044;-76
2022/07/11 02:11:50;;;;;;;2.25;0.90;;;15.20;99.90;;;;;;5073184;28;20055;-77
2022/07/11 02:14:15;;;;;;;2.90;1.08;;;15.20;99.90;;;;;;5072695;28;20067;-76
2022/07/11 02:16:41;;;;;;;2.30;0.88;;;15.20;99.90;;;;;;5073118;28;20055;-76
2022/07/11 02:19:07;;;;;;;3.45;1.02;;;15.20;99.90;;;;;;5072453;28;20102;-76
2022/07/11 02:21:33;;;;;;;2.90;1.20;;;15.20;99.90;;;;;;5074229;28;20056;-76
2022/07/11 02:23:59;;;;;;;2.03;0.80;;;15.10;99.90;;;;;;5074389;28;20169;-76
2022/07/11 02:26:25;;;;;;;1.63;1.00;;;15.20;99.90;;;;;;5073453;28;20590;-76
2022/07/11 02:28:51;;;;;;;1.70;0.93;;;15.20;99.90;;;;;;5073275;28;20193;-76
2022/07/11 02:31:16;;;;;;;2.10;1.10;;;15.00;99.90;;;;;;5072770;28;20041;-76
2022/07/11 02:33:42;;;;;;;2.90;1.10;;;15.20;99.90;;;;;;5073182;28;20048;-77
2022/07/11 02:36:08;;;;;;;2.72;1.20;;;15.20;99.90;;;;;;5072172;28;20044;-76
2022/07/11 02:38:34;;;;;;;2.47;1.10;;;15.20;99.90;;;;;;5073222;28;20131;-76
2022/07/11 02:41:00;;;;;;;3.00;1.00;;;15.10;99.90;;;;;;5073675;28;20040;-76
2022/07/11 02:43:27;;;;;;;2.67;1.30;;;15.10;99.90;;;;;;5073048;28;20054;-77
2022/07/11 02:45:56;;;;;;;2.75;1.20;;;15.10;99.90;;;;;;5073111;28;20045;-77
2022/07/11 02:48:22;;;;;;;2.10;1.13;;;15.10;99.90;;;;;;5073149;28;20045;-77
2022/07/11 02:50:48;;;;;;;2.17;1.13;;;15.10;99.90;;;;;;5088859;28;20041;-77
2022/07/11 02:53:14;;;;;;;2.80;1.30;;;15.00;99.90;;;;;;5073032;28;20489;-78
2022/07/11 02:55:39;;;;;;;2.60;1.35;;;15.00;99.90;;;;;;5071804;28;20084;-77
2022/07/11 02:58:05;;;;;;;4.90;1.30;;;15.00;99.90;;;;;;5072730;28;20103;-77
2022/07/11 03:00:31;;;;;;;1.63;1.05;;;15.00;99.90;;;;;;5072963;28;20094;-76
2022/07/11 03:02:57;;;;;;;2.50;1.27;;;15.00;99.90;;;;;;5073211;28;20106;-77
2022/07/11 03:05:23;;;;;;;2.50;1.05;;;15.00;99.90;;;;;;5071724;28;20049;-77
2022/07/11 03:07:49;;;;;;;3.00;1.38;;;15.00;99.90;;;;;;5072818;28;20063;-77
2022/07/11 03:10:15;;;;;;;2.05;0.90;;;15.00;99.90;;;;;;5072773;28;20051;-76
2022/07/11 03:12:41;;;;;;;2.20;1.27;;;15.00;99.90;;;;;;5072037;28;20102;-77
2022/07/11 03:15:07;;;;;;;2.08;1.10;;;15.00;99.90;;;;;;5072877;28;20045;-76
2022/07/11 03:17:34;;;;;;;2.55;1.25;;;15.00;99.90;;;;;;5071921;28;20099;-76
2022/07/11 03:20:00;;;;;;;1.88;1.13;;;15.00;99.90;;;;;;5071857;28;20098;-76
2022/07/11 03:22:26;;;;;;;2.60;1.20;;;15.00;99.90;;;;;;5072008;28;20060;-76
2022/07/11 03:24:52;;;;;;;2.92;1.65;;;15.00;99.90;;;;;;5074699;28;20044;-76
2022/07/11 03:27:18;;;;;;;2.00;1.30;;;15.10;99.90;;;;;;5076609;28;20174;-77
2022/07/11 03:29:43;;;;;;;2.08;1.30;;;15.10;99.90;;;;;;5076486;28;20059;-77
2022/07/11 03:32:09;;;;;;;2.10;1.23;;;15.10;99.90;;;;;;5076703;28;20036;-77
2022/07/11 03:34:36;;;;;;;2.83;1.40;;;15.10;99.90;;;;;;5076229;28;20048;-77
2022/07/11 03:37:01;;;;;;;2.47;1.38;;;15.00;99.90;;;;;;5076093;28;20048;-77
2022/07/11 03:39:27;;;;;;;2.60;1.38;;;15.10;99.90;;;;;;5075170;28;20136;-77
2022/07/11 03:41:54;;;;;;;2.38;1.48;;;15.00;99.90;;;;;;5076560;28;20442;-77
2022/07/11 03:44:19;;;;;;;3.28;1.50;;;15.00;99.90;;;;;;5075253;28;20040;-77
2022/07/11 03:46:45;;;;;;;2.60;1.40;;;15.00;99.90;;;;;;5075106;28;20135;-77
2022/07/11 03:49:11;;;;;;;2.25;1.25;;;15.00;99.90;;;;;;5076082;28;20044;-77
2022/07/11 03:51:36;;;;;;;1.80;1.20;;;15.00;99.90;;;;;;5059024;28;20048;-77
2022/07/11 03:54:02;;;;;;;2.20;1.30;;;15.00;99.90;;;;;;5059222;28;20424;-77
2022/07/11 03:56:28;;;;;;;2.40;1.30;;;15.00;99.90;;;;;;5076005;28;20062;-77
2022/07/11 03:58:54;;;;;;;2.47;1.38;;;15.00;99.90;;;;;;5074638;28;20052;-77
2022/07/11 04:01:19;;;;;;;2.22;1.50;;;15.00;99.90;;;;;;5076003;28;20047;-77
2022/07/11 04:03:46;;;;;;;3.45;1.40;;;15.00;99.90;;;;;;5076437;28;20055;-77
2022/07/11 04:06:12;;;;;;;2.78;1.30;;;15.00;99.90;;;;;;5075160;28;20048;-77
2022/07/11 04:08:39;;;;;;;1.90;1.13;;;15.00;99.90;;;;;;5075135;28;20057;-77
2022/07/11 04:11:05;;;;;;;1.83;1.05;;;15.00;99.90;;;;;;5075708;28;20246;-78
2022/07/11 04:13:31;;;;;;;2.53;1.35;;;15.10;99.90;;;;;;5075658;28;20059;-77
2022/07/11 04:15:57;;;;;;;2.65;1.48;;;15.00;99.90;;;;;;5075939;28;20048;-77
2022/07/11 04:18:23;;;;;;;2.45;1.30;;;15.00;99.90;;;;;;5075538;28;20040;-77
2022/07/11 04:20:49;;;;;;;3.42;1.45;;;15.00;99.90;;;;;;5075401;28;20055;-77
2022/07/11 04:23:16;;;;;;;3.25;1.40;;;15.10;99.90;;;;;;5075574;28;20044;-76
2022/07/11 04:25:42;;;;;;;2.00;1.23;;;15.10;99.90;;;;;;5074521;28;20127;-77
2022/07/11 04:28:08;;;;;;;3.22;1.60;;;15.10;99.90;;;;;;5075470;28;20132;-77
2022/07/11 04:30:33;;;;;;;3.38;1.27;;;15.10;99.90;;;;;;5074714;28;20072;-77
2022/07/11 04:33:00;;;;;;;1.50;1.00;;;15.10;99.90;;;;;;5075594;28;20044;-77
2022/07/11 04:35:27;;;;;;;2.63;1.17;;;15.10;99.90;;;;;;5074167;28;20048;-76
2022/07/11 04:37:53;;;;;;;1.95;1.27;;;15.10;99.90;;;;;;5074708;28;20083;-76
2022/07/11 04:40:23;;;;;;;2.05;1.10;;;15.20;99.90;;;;;;5075508;28;20110;-77
2022/07/11 04:42:52;;;;;;;2.53;1.30;;;15.20;99.90;;;;;;5073958;28;20090;-77
2022/07/11 04:45:18;;;;;;;3.17;1.45;;;15.20;99.90;;;;;;5074855;28;20135;-76
2022/07/11 04:47:44;;;;;;;2.67;1.30;;;15.20;99.90;;;;;;5057552;28;20438;-77
2022/07/11 04:50:10;;;;;;;2.63;1.40;;;15.20;99.90;;;;;;5073861;28;20045;-77
2022/07/11 04:52:36;;;;;;;2.30;1.40;;;15.20;99.90;;;;;;5073743;28;20052;-77
2022/07/11 04:55:02;;;;;;;2.88;1.40;;;15.30;99.90;;;;;;5074941;28;20048;-77
2022/07/11 04:57:28;;;;;;;3.10;1.50;;;15.30;99.90;;;;;;5075094;28;20105;-77
2022/07/11 04:59:53;;;;;;;2.38;1.25;;;15.30;99.90;;;;;;5074850;28;20514;-77
2022/07/11 05:02:19;;;;;;;2.10;1.08;;;15.30;99.90;;;;;;5074027;28;20049;-76
2022/07/11 05:04:45;;;;;;;3.03;1.42;;;15.30;99.90;;;;;;5074646;28;20366;-76
2022/07/11 05:07:13;;;;;;;2.17;1.10;;;15.40;99.90;;;;;;5074436;28;20076;-77
2022/07/11 05:09:39;;;;;;;2.30;1.30;;;15.40;99.90;;;;;;5074648;28;20064;-77
2022/07/11 05:12:06;;;;;;;2.33;1.30;;;15.50;99.90;;;;;;5074352;28;20052;-77
2022/07/11 05:14:32;;;;;;;2.55;1.27;;;15.50;99.90;;;;;;5074115;28;20048;-76
2022/07/11 05:16:57;;;;;;;4.90;1.10;;;15.60;99.90;;;;;;5074475;28;20052;-76
2022/07/11 05:19:23;;;;;;;2.70;1.20;;;15.60;99.90;;;;;;5074896;28;20102;-77
2022/07/11 05:21:49;;;;;;;2.63;1.23;;;15.60;99.90;;;;;;5073202;28;20039;-77
2022/07/11 05:24:14;;;;;;;1.73;0.95;;;15.60;99.90;;;;;;5073356;28;20048;-77
2022/07/11 05:26:44;;;;;;;3.45;1.05;;;15.60;99.90;;;;;;5073609;28;20053;-76
2022/07/11 05:29:10;;;;;;;1.42;0.82;;;15.60;99.90;;;;;;5074199;28;20465;-77
2022/07/11 05:31:35;;;;;;;2.17;1.00;;;15.60;99.90;;;;;;5072900;28;20044;-77
2022/07/11 05:34:01;;;;;;;3.65;1.10;;;15.60;99.90;;;;;;5074153;28;20101;-77
2022/07/11 05:36:27;;;;;;;1.70;0.80;;;15.70;99.90;;;;;;5057214;28;20346;-77
2022/07/11 05:38:53;;;;;;;1.83;0.70;;;15.70;99.90;;;;;;5056621;28;20056;-77
2022/07/11 05:41:18;;;;;;;1.70;0.80;;;15.70;99.90;;;;;;5056289;28;20489;-77
2022/07/11 05:43:44;;;;;;;1.33;0.60;;;15.70;99.90;;;;;;5072593;28;20045;-76
2022/07/11 05:46:09;;;;;;;2.33;0.70;;;15.70;99.90;;;;;;5073452;28;20044;-77
2022/07/11 05:48:35;;;;;;;1.67;0.70;;;15.70;99.90;;;;;;5074077;28;20139;-77
2022/07/11 05:51:01;;;;;;;1.75;0.80;;;15.70;99.90;;;;;;5074224;28;20041;-76
2022/07/11 05:53:26;;;;;;;1.42;0.70;;;15.70;99.90;;;;;;5074273;28;20178;-78
2022/07/11 05:55:52;;;;;;;1.65;0.73;;;15.70;99.90;;;;;;5056457;28;20066;-76
2022/07/11 05:58:18;;;;;;;2.50;1.00;;;15.70;99.90;;;;;;5072467;28;20063;-77
2022/07/11 06:00:43;;;;;;;2.10;0.70;;;15.80;99.90;;;;;;5073648;28;20137;-77
2022/07/11 06:03:09;;;;;;;1.60;0.63;;;15.90;99.90;;;;;;5073628;28;20128;-77
2022/07/11 06:05:35;;;;;;;1.80;0.75;;;16.00;99.90;;;;;;5073583;28;20051;-76
2022/07/11 06:10:45;;;;;;;1.20;0.60;;;16.00;99.90;;;;;;5059136;28;20136;-76
2022/07/11 06:13:10;;;;;;;1.00;0.50;;;16.10;99.90;;;;;;5072337;28;20127;-77
2022/07/11 06:15:36;;;;;;;1.08;0.50;;;16.00;99.90;;;;;;5073450;28;20040;-77
2022/07/11 06:18:02;;;;;;;0.95;0.50;;;16.10;99.90;;;;;;5073231;28;20059;-67
2022/07/11 06:20:28;;;;;;;1.30;0.65;;;16.10;99.90;;;;;;5073409;28;20090;-67
2022/07/11 06:22:54;;;;;;;1.95;0.98;;;16.10;99.90;;;;;;5073660;28;20140;-67
2022/07/11 06:25:20;;;;;;;1.65;0.60;;;16.20;99.90;;;;;;5073316;28;20545;-67
2022/07/11 06:27:46;;;;;;;0.90;0.50;;;16.20;99.90;;;;;;5073394;28;20058;-67
2022/07/11 06:30:11;;;;;;;1.02;0.60;;;16.20;99.90;;;;;;5073214;28;20370;-67
2022/07/11 06:32:39;;;;;;;1.42;0.60;;;16.20;99.90;;;;;;5073999;28;20147;-68
2022/07/11 06:35:06;;;;;;;0.65;0.40;;;16.20;99.90;;;;;;5073181;28;20135;-67
2022/07/11 06:37:32;;;;;;;1.75;0.60;;;16.20;99.90;;;;;;5073182;28;20051;-67
2022/07/11 06:39:58;;;;;;;1.17;0.60;;;16.20;99.90;;;;;;5072999;28;20409;-69
2022/07/11 06:42:24;;;;;;;1.30;0.45;;;16.20;99.90;;;;;;5072771;28;20041;-68
2022/07/11 06:44:50;;;;;;;0.85;0.30;;;16.20;99.90;;;;;;5073182;28;20047;-68
2022/07/11 06:47:15;;;;;;;1.05;0.40;;;16.30;99.90;;;;;;5073840;28;20381;-68
2022/07/11 06:49:41;;;;;;;0.98;0.43;;;16.20;99.90;;;;;;5072592;28;20486;-67
2022/07/11 06:52:07;;;;;;;1.05;0.40;;;16.30;99.90;;;;;;5072979;28;20385;-68
2022/07/11 06:54:32;;;;;;;0.85;0.40;;;16.30;99.90;;;;;;5073558;28;20494;-68
2022/07/11 06:56:58;;;;;;;1.23;0.40;;;16.30;99.90;;;;;;5073425;28;20053;-67
2022/07/11 06:59:23;;;;;;;0.52;0.32;;;16.30;99.90;;;;;;5075949;28;20056;-68
2022/07/11 07:01:49;;;;;;;1.35;0.45;;;16.30;99.90;;;;;;5075789;28;20058;-68
2022/07/11 07:04:15;;;;;;;1.30;0.50;;;16.40;99.90;;;;;;5076985;28;20041;-68
2022/07/11 07:06:41;;;;;;;0.43;0.30;;;16.50;99.90;;;;;;5059120;28;20044;-68
2022/07/11 07:09:06;;;;;;;0.88;0.40;;;16.50;99.90;;;;;;5077191;28;20044;-68
2022/07/11 07:11:32;;;;;;;0.73;0.38;;;16.50;99.90;;;;;;5076871;28;20041;-68
2022/07/11 07:13:58;;;;;;;1.40;0.30;;;16.60;99.90;;;;;;5076750;28;20396;-68
2022/07/11 07:16:23;;;;;;;0.85;0.40;;;16.60;99.90;;;;;;5075779;28;20140;-68
2022/07/11 07:18:50;;;;;;;0.75;0.38;;;16.80;99.90;;;;;;5076591;28;20451;-68
2022/07/11 07:21:16;;;;;;;0.80;0.55;;;16.90;99.90;;;;;;5076513;28;20058;-68
2022/07/11 07:23:41;;;;;;;0.77;0.45;;;17.10;99.90;;;;;;5076776;28;20100;-68
2022/07/11 07:26:07;;;;;;;1.08;0.50;;;17.20;99.90;;;;;;5077052;28;20473;-68
2022/07/11 07:28:33;;;;;;;1.60;0.40;;;17.20;99.90;;;;;;5076287;28;20405;-67
2022/07/11 07:30:59;;;;;;;0.82;0.40;;;17.30;99.90;;;;;;5076121;28;20074;-67
2022/07/11 07:33:25;;;;;;;1.15;0.40;;;17.20;99.90;;;;;;5075025;28;20040;-67
2022/07/11 07:35:50;;;;;;;0.80;0.30;;;17.20;99.90;;;;;;5076351;28;20091;-67
2022/07/11 07:38:16;;;;;;;0.65;0.43;;;17.20;99.90;;;;;;5076265;28;20076;-67
2022/07/11 07:40:42;;;;;;;1.20;0.50;;;17.10;99.90;;;;;;5076257;28;20054;-68
2022/07/11 07:43:08;;;;;;;1.02;0.45;;;17.10;99.90;;;;;;5076650;28;20080;-68
2022/07/11 07:45:34;;;;;;;1.77;0.50;;;17.10;99.90;;;;;;5076804;28;20040;-67
2022/07/11 07:47:59;;;;;;;0.70;0.50;;;17.00;99.90;;;;;;5075309;28;20046;-68
2022/07/11 07:50:25;;;;;;;1.00;0.50;;;17.00;99.90;;;;;;5076001;28;20109;-68
2022/07/11 07:52:51;;;;;;;2.17;0.50;;;16.90;99.90;;;;;;5076255;28;20051;-67
2022/07/11 07:55:16;;;;;;;0.52;0.30;;;16.90;99.90;;;;;;5075295;28;20094;-68
2022/07/11 07:57:42;;;;;;;0.70;0.40;;;16.90;99.90;;;;;;5075108;28;20056;-67
2022/07/11 08:02:52;;;;;;;0.73;0.40;;;17.00;99.90;;;;;;5074708;28;20055;-68
2022/07/11 08:05:19;;;;;;;0.40;0.30;;;17.20;99.90;;;;;;5073982;28;20157;-68
2022/07/11 08:07:44;;;;;;;0.80;0.40;;;17.30;99.90;;;;;;5074453;28;20457;-68
2022/07/11 08:10:11;;;;;;;0.75;0.40;;;17.30;99.90;;;;;;5073037;28;20052;-68
2022/07/11 08:12:37;;;;;;;0.40;0.30;;;17.40;99.90;;;;;;5074347;28;20048;-68
2022/07/11 08:15:03;;;;;;;0.40;0.30;;;17.40;99.90;;;;;;5074491;28;20094;-68
2022/07/11 08:17:29;;;;;;;1.15;0.63;;;17.40;99.90;;;;;;5074545;28;20089;-68
2022/07/11 08:19:55;;;;;;;0.85;0.40;;;17.40;99.90;;;;;;5074433;28;20044;-68
2022/07/11 08:22:22;;;;;;;0.22;0.22;;;17.40;99.90;;;;;;5073428;28;20059;-69
2022/07/11 08:24:47;;;;;;;0.40;0.30;;;17.40;99.90;;;;;;5074881;28;20416;-66
2022/07/11 08:27:13;;;;;;;0.55;0.30;;;17.40;99.90;;;;;;5074306;28;20041;-66
2022/07/11 08:29:38;;;;;;;0.70;0.40;;;17.30;99.90;;;;;;5074131;28;20600;-66
2022/07/11 08:32:04;;;;;;;1.33;0.40;;;17.30;99.90;;;;;;5074500;28;20076;-68
2022/07/11 08:34:30;;;;;;;0.73;0.50;;;17.30;99.90;;;;;;5073645;28;20489;-66
2022/07/11 08:36:56;;;;;;;1.42;0.38;;;17.30;99.90;;;;;;5073725;28;20052;-68
2022/07/11 08:39:21;;;;;;;0.88;0.40;;;17.30;99.90;;;;;;5072430;28;20493;-69
2022/07/11 08:41:47;;;;;;;0.70;0.40;;;17.30;99.90;;;;;;5073788;28;20044;-66
2022/07/11 08:44:14;;;;;;;0.47;0.40;;;17.40;99.90;;;;;;5073754;28;20080;-68
2022/07/11 08:46:41;;;;;;;1.00;0.52;;;17.40;99.90;;;;;;5074364;28;20049;-67
2022/07/11 08:49:06;;;;;;;0.77;0.40;;;17.50;99.90;;;;;;5073793;28;20110;-67
2022/07/11 08:51:36;;;;;;;0.90;0.40;;;17.50;99.90;;;;;;5090196;28;20400;-66
2022/07/11 08:54:02;;;;;;;1.08;0.50;;;17.60;99.90;;;;;;5073591;28;20044;-67
2022/07/11 08:56:29;;;;;;;0.57;0.40;;;17.60;99.90;;;;;;5074174;28;20071;-67
2022/07/11 08:58:56;;;;;;;0.68;0.30;;;17.70;99.90;;;;;;5029984;28;1286557;-66
2022/07/11 09:01:30;;;;;;;1.42;0.30;;;17.80;99.90;;;;;;5074457;28;20051;-67
2022/07/11 09:03:57;;;;;;;0.35;0.30;;;17.90;99.90;;;;;;5074524;28;20083;-67
2022/07/11 09:06:23;;;;;;;0.40;0.30;;;17.90;99.90;;;;;;5074552;28;20107;-66
2022/07/11 09:08:48;;;;;;;0.88;0.40;;;17.90;99.90;;;;;;5073348;28;20045;-67
2022/07/11 09:11:15;;;;;;;0.38;0.20;;;17.90;99.90;;;;;;5074223;28;20101;-67
2022/07/11 09:13:40;;;;;;;0.40;0.30;;;17.90;99.90;;;;;;5074210;28;20132;-67
2022/07/11 09:16:08;;;;;;;0.50;0.30;;;17.80;99.90;;;;;;5074265;28;20127;-67
2022/07/11 09:18:39;;;;;;;0.32;0.20;;;17.80;99.90;;;;;;5074200;28;20056;-67
2022/07/11 09:26:44;;;;;;;0.63;0.30;;;17.90;99.90;;;;;;5074128;28;20057;-67
2022/07/11 09:29:20;;;;;;;0.50;0.30;;;18.00;99.90;;;;;;5072830;28;20048;-72
2022/07/11 09:31:46;;;;;;;0.50;0.30;;;18.10;99.90;;;;;;5072978;28;20059;-66
2022/07/11 09:34:14;;;;;;;0.50;0.30;;;18.10;99.90;;;;;;5073794;28;20052;-66
2022/07/11 09:36:46;;;;;;;0.85;0.30;;;18.20;99.90;;;;;;5072679;28;20040;-67
2022/07/11 09:39:20;;;;;;;1.55;0.30;;;18.20;99.90;;;;;;5073697;28;20044;-66
2022/07/11 09:41:48;;;;;;;0.28;0.20;;;18.20;99.90;;;;;;5073674;28;20045;-66
2022/07/11 09:44:17;;;;;;;0.65;0.38;;;18.30;99.90;;;;;;5073399;28;20048;-66
2022/07/11 09:46:46;;;;;;;0.82;0.38;;;18.30;99.90;;;;;;5073446;28;20048;-66
2022/07/11 09:49:12;;;;;;;0.75;0.40;;;18.40;99.90;;;;;;5073560;28;20059;-66
2022/07/11 09:51:38;;;;;;;0.50;0.30;;;18.40;99.90;;;;;;5072409;28;20090;-66
2022/07/11 09:54:05;;;;;;;0.50;0.30;;;18.40;99.90;;;;;;5073489;28;20084;-66
2022/07/11 09:56:31;;;;;;;0.68;0.40;;;18.40;99.90;;;;;;5072561;28;20487;-66
2022/07/11 09:59:02;;;;;;;1.02;0.40;;;18.40;99.90;;;;;;5071947;28;20092;-67
2022/07/11 10:01:29;;;;;;;1.02;0.45;;;18.40;99.90;;;;;;5073418;28;20051;-67
2022/07/11 10:03:55;;;;;;;0.82;0.50;;;18.40;99.90;;;;;;5073366;28;20094;-67
2022/07/11 10:06:22;;;;;;;0.70;0.40;;;18.40;99.90;;;;;;5073353;28;20080;-67
2022/07/11 10:08:51;;;;;;;1.10;0.50;;;18.30;99.90;;;;;;5073345;28;20063;-67
2022/07/11 10:11:17;;;;;;;0.85;0.38;;;18.30;99.90;;;;;;5073127;28;20036;-67
2022/07/11 10:13:44;;;;;;;1.10;0.40;;;18.10;99.90;;;;;;5073114;28;20055;-66
2022/07/11 10:16:27;;;;;;;0.75;0.30;;;18.10;99.90;;;;;;5071943;28;20189;-67
2022/07/11 10:19:29;;;;;;;0.77;0.30;;;18.10;99.90;;;;;;5073616;28;20433;-67
2022/07/11 10:22:25;;;;;;;0.60;0.30;;;18.10;99.90;;;;;;5072948;28;20044;-66
2022/07/11 10:25:19;;;;;;;0.85;0.40;;;18.20;99.90;;;;;;5055149;28;20044;-67
2022/07/11 10:28:00;;;;;;;0.85;0.40;;;18.20;99.90;;;;;;5072688;28;20478;-67
2022/07/11 10:30:52;;;;;;;0.73;0.38;;;18.30;99.90;;;;;;5072941;28;20048;-67
2022/07/11 10:33:18;;;;;;;0.57;0.35;;;18.40;99.90;;;;;;5073534;28;20500;-68
2022/07/11 10:35:51;;;;;;;0.70;0.40;;;18.40;99.90;;;;;;5073184;28;20098;-68
2022/07/11 10:38:18;;;;;;;1.60;0.50;;;18.40;99.90;;;;;;5072829;28;20040;-67
2022/07/11 10:40:48;;;;;;;0.70;0.40;;;18.40;99.90;;;;;;5072589;28;20056;-67
2022/07/11 10:43:16;;;;;;;0.70;0.35;;;18.40;99.90;;;;;;5073334;28;20045;-67
2022/07/11 10:46:01;;;;;;;1.23;0.55;;;18.50;99.90;;;;;;5055720;28;20369;-67
2022/07/11 10:48:29;;;;;;;5.88;0.50;;;18.50;99.90;;;;;;5071772;28;20057;-67
2022/07/11 10:51:24;;;;;;;1.02;0.40;;;18.50;99.90;;;;;;5073136;28;20060;-67
2022/07/11 10:53:51;;;;;;;0.77;0.40;;;18.60;99.90;;;;;;5073159;28;20045;-67
2022/07/11 10:56:43;;;;;;;0.82;0.30;;;18.60;99.90;;;;;;5072749;28;20090;-66
2022/07/11 10:59:17;;;;;;;0.70;0.40;;;18.70;99.90;;;;;;5072474;28;20056;-67
2022/07/11 11:02:11;;;;;;;0.68;0.40;;;18.70;99.90;;;;;;5073499;28;20083;-67
2022/07/11 11:04:46;;;;;;;0.52;0.30;;;18.70;99.90;;;;;;5073396;28;20420;-66
2022/07/11 11:07:32;;;;;;;0.50;0.30;;;18.80;99.90;;;;;;5073013;28;20048;-66
2022/07/11 11:09:58;;;;;;;0.88;0.40;;;18.80;99.90;;;;;;5072471;28;20079;-66
2022/07/11 11:13:05;;;;;;;0.90;0.40;;;18.80;99.90;;;;;;5072499;28;20426;-66
2022/07/11 11:15:54;;;;;;;0.85;0.50;;;18.80;99.90;;;;;;5072241;28;20141;-67
2022/07/11 11:18:25;;;;;;;0.60;0.40;;;18.80;99.90;;;;;;5072497;28;20045;-68
2022/07/11 11:21:00;;;;;;;0.98;0.45;;;18.80;99.90;;;;;;5072379;28;20059;-67
2022/07/11 11:23:30;;;;;;;0.60;0.38;;;18.80;99.90;;;;;;5072335;28;20056;-67
2022/07/11 11:26:15;;;;;;;0.60;0.32;;;18.80;99.90;;;;;;5072594;28;20053;-67
2022/07/11 11:29:00;;;;;;;0.70;0.40;;;18.80;99.90;;;;;;5072303;28;20076;-68
2022/07/11 11:31:29;;;;;;;0.95;0.50;;;18.80;99.90;;;;;;5071291;28;20511;-68
2022/07/11 11:33:55;;;;;;;1.33;0.40;;;18.90;99.90;;;;;;5072845;28;20045;-66
2022/07/11 11:36:22;;;;;;;0.95;0.40;;;19.00;99.90;;;;;;5072524;28;20101;-66
2022/07/11 11:38:49;;;;;;;1.60;0.40;;;19.20;99.90;;;;;;5072291;28;20044;-65
2022/07/11 11:41:23;;;;;;;0.70;0.32;;;19.20;99.90;;;;;;5072282;28;20052;-65
2022/07/11 11:43:49;;;;;;;0.73;0.30;;;19.30;99.90;;;;;;5072086;28;20056;-66
2022/07/11 11:46:14;;;;;;;0.75;0.40;;;19.30;99.90;;;;;;5075721;28;20049;-66
2022/07/11 11:48:45;;;;;;;1.67;0.40;;;19.30;99.90;;;;;;5075620;28;20045;-66
2022/07/11 11:51:20;;;;;;;0.50;0.40;;;19.30;99.90;;;;;;5075877;28;20110;-67
2022/07/11 11:53:52;;;;;;;0.63;0.40;;;19.30;99.90;;;;;;5075651;28;20052;-67
2022/07/11 11:56:33;;;;;;;0.70;0.35;;;19.30;99.90;;;;;;5075851;28;20052;-67
2022/07/11 11:59:07;;;;;;;0.82;0.40;;;19.20;99.90;;;;;;5076178;28;20062;-67
2022/07/11 12:01:35;;;;;;;0.82;0.40;;;19.20;99.90;;;;;;5075767;28;20484;-67
2022/07/11 12:04:10;;;;;;;0.73;0.40;;;19.20;99.90;;;;;;5075713;28;20454;-67
2022/07/11 12:06:46;;;;;;;1.48;0.40;;;19.20;99.90;;;;;;5075437;28;20048;-66
2022/07/11 12:09:15;;;;;;;0.73;0.40;;;19.10;99.90;;;;;;5075693;28;20036;-67
2022/07/11 12:11:46;;;;;;;0.40;0.30;;;19.20;99.90;;;;;;5075382;28;20048;-67
2022/07/11 12:14:14;;;;;;;0.35;0.30;;;19.20;99.90;;;;;;5075512;28;20044;-67
2022/07/11 12:16:42;;;;;;;0.35;0.30;;;19.10;99.90;;;;;;5075525;28;20048;-66
2022/07/11 12:19:22;;;;;;;0.88;0.40;;;19.10;99.90;;;;;;5075896;28;20094;-67
2022/07/11 12:21:50;;;;;;;1.08;0.47;;;19.20;99.90;;;;;;5075935;28;20151;-66
2022/07/11 12:24:20;;;;;;;1.65;0.50;;;19.20;99.90;;;;;;5075338;28;20048;-66
2022/07/11 12:26:47;;;;;;;1.10;0.47;;;19.30;99.90;;;;;;5075193;28;20070;-66
2022/07/11 12:29:22;;;;;;;0.95;0.40;;;19.40;99.90;;;;;;5075264;28;20124;-66
2022/07/11 12:32:10;;;;;;;0.80;0.40;;;19.50;99.90;;;;;;5075140;28;20032;-67
2022/07/11 12:34:36;;;;;;;0.50;0.30;;;19.50;99.90;;;;;;5074420;28;20381;-66
2022/07/11 12:37:03;;;;;;;0.75;0.30;;;19.50;99.90;;;;;;5075071;28;20049;-66
2022/07/11 12:39:33;;;;;;;0.88;0.40;;;19.50;99.90;;;;;;5074225;28;20063;-67
2022/07/11 12:42:00;;;;;;;0.60;0.40;;;19.50;99.90;;;;;;5075173;28;20060;-67
2022/07/11 12:47:14;;;;;;;1.48;0.50;;;19.60;99.90;;;;;;5075632;28;20469;-67
2022/07/11 12:49:44;;;;;;;1.58;0.40;;;19.60;99.90;;;;;;5074983;28;20114;-66
2022/07/11 12:52:14;;;;;;;1.25;0.43;;;19.70;99.90;;;;;;5074052;28;20041;-66
2022/07/11 12:54:40;;;;;;;1.75;0.50;;;19.80;99.90;;;;;;5073488;28;20048;-67
2022/07/11 12:57:07;;;;;;;0.57;0.40;;;19.80;99.90;;;;;;5073420;28;20052;-67
2022/07/11 12:59:34;;;;;;;0.70;0.35;;;19.90;99.90;;;;;;5074741;28;20051;-67
2022/07/11 13:02:13;;;;;;;0.43;0.40;;;20.00;99.90;;;;;;5073386;28;20088;-67
2022/07/11 13:04:49;;;;;;;1.02;0.40;;;20.10;99.90;;;;;;5074405;28;20417;-67